Terminal Aerodrome Forecast
Issued by NWS

Home | Current Version | Previous Version | Text Only | Print | Product List | Glossary On
Versions: 1 2 3 4 5 6 7 8 9 10 11 12 13
000
FTUS44 KLZK 010500
TAFLIT
TAF
KLIT 010520Z 0106/0206 12003KT P6SM SCT250
     FM011400 17009KT P6SM SCT050 BKN120
     FM020000 15005KT P6SM BKN050=

USA.gov is the U.S. government's official web portal to all federal, state and local government web resources and services.